Airport Name : Toamasina

Other Name : Toamasina

ICAO : FMMT

IATA : TMM

FAA :

Latitude : -18.109517

Longitude : 49.392536

Country : Madagascar

Local Date and Time : 28 Feb 2021 03:19

 

TAF (Terminal Aerodrome Forecast)

TAF FMMT 272300Z 2800/2824 VRB02KT 9999 FEW017 SCT033 BECMG 2808/2810 14012KT

 

METAR (METeorological Aerodrome Report)

FMMT 280000Z 25002KT 9999 SCT017 24/23 Q1008 NOSIG

FMMT 272300Z 24003KT 9999 SCT017 24/23 Q1008 NOSIG

FMMT 272200Z VRB02KT 9999 SCT017 25/24 Q1009 NOSIG

FMMT 272100Z VRB02KT 9999 VCSH SCT017 SCT033 25/24 Q1010 NOSIG

To Charter a Jet Click here.